Time;durP1;ratioP1;P1;durP2;ratioP2;P2;SDS_P1;SDS_P2;PMS_P1;PMS_P2;Temp;Humidity;BMP_temperature;BMP_pressure;BME280_temperature;BME280_humidity;BME280_pressure;Samples;Min_cycle;Max_cycle;Signal;HPM_P1;HPM_P2
2023/04/24 00:00:14;;;;;;;10.32;4.88;;;;;;;9.25;100.00;99888.03;4893836;29;20031;-73
2023/04/24 00:02:41;;;;;;;10.23;5.00;;;;;;;9.28;100.00;99890.25;4893954;29;20410;-73
2023/04/24 00:05:07;;;;;;;11.23;5.43;;;;;;;9.31;100.00;99899.66;4894244;29;20045;-73
2023/04/24 00:07:33;;;;;;;10.40;6.10;;;;;;;9.28;100.00;99894.78;4893896;29;20396;-73
2023/04/24 00:09:59;;;;;;;18.88;8.02;;;;;;;9.25;100.00;99889.84;4893934;29;20128;-73
2023/04/24 00:12:25;;;;;;;12.43;6.47;;;;;;;9.28;100.00;99897.44;4894302;29;20115;-73
2023/04/24 00:14:51;;;;;;;15.05;7.60;;;;;;;9.26;100.00;99896.81;4893848;29;20096;-73
2023/04/24 00:17:19;;;;;;;15.30;8.07;;;;;;;9.23;100.00;99889.28;4893780;29;20040;-73
2023/04/24 00:19:45;;;;;;;15.90;7.32;;;;;;;9.24;100.00;99893.53;4893575;29;20096;-73
2023/04/24 00:22:13;;;;;;;15.48;8.05;;;;;;;9.25;100.00;99892.50;4893758;29;20041;-73
2023/04/24 00:24:38;;;;;;;13.02;7.00;;;;;;;9.26;100.00;99900.28;4893873;29;20057;-73
2023/04/24 00:27:03;;;;;;;13.85;8.13;;;;;;;9.28;100.00;99905.41;4861678;29;20045;-73
2023/04/24 00:29:29;;;;;;;13.60;7.43;;;;;;;9.26;100.00;99905.63;4875815;29;20035;-73
2023/04/24 00:31:54;;;;;;;15.82;7.10;;;;;;;9.25;100.00;99908.47;4893011;29;20519;-73
2023/04/24 00:34:19;;;;;;;14.50;7.80;;;;;;;9.26;100.00;99902.13;4893688;29;20087;-73
2023/04/24 00:36:46;;;;;;;17.27;8.75;;;;;;;9.25;100.00;99906.66;4893698;29;20040;-73
2023/04/24 00:39:11;;;;;;;17.27;8.70;;;;;;;9.25;100.00;99917.28;4893557;29;20061;-73
2023/04/24 00:41:37;;;;;;;17.70;7.90;;;;;;;9.23;100.00;99913.22;4893634;29;20061;-73
2023/04/24 00:44:02;;;;;;;17.13;9.30;;;;;;;9.21;100.00;99919.53;4893561;29;20397;-73
2023/04/24 00:46:28;;;;;;;18.73;9.18;;;;;;;9.17;100.00;99912.22;4893337;29;20492;-73
2023/04/24 00:48:54;;;;;;;18.15;9.10;;;;;;;9.13;100.00;99913.66;4893595;29;20045;-73
2023/04/24 00:51:20;;;;;;;16.35;7.85;;;;;;;9.12;100.00;99914.69;4895031;29;20108;-73
2023/04/24 00:53:46;;;;;;;21.13;9.77;;;;;;;9.02;100.00;99909.81;4897203;29;20033;-73
2023/04/24 00:56:12;;;;;;;16.85;8.93;;;;;;;9.00;100.00;99911.84;4897143;29;20092;-73
2023/04/24 00:58:38;;;;;;;16.73;9.73;;;;;;;8.94;100.00;99907.38;4897028;29;20037;-73
2023/04/24 01:01:06;;;;;;;18.95;11.30;;;;;;;8.91;100.00;99913.94;4879954;29;20045;-73
2023/04/24 01:03:33;;;;;;;20.58;9.70;;;;;;;8.87;100.00;99909.22;4897199;29;20032;-73
2023/04/24 01:05:58;;;;;;;20.40;9.88;;;;;;;8.88;100.00;99906.38;4878968;29;20629;-73
2023/04/24 01:08:26;;;;;;;21.30;9.52;;;;;;;8.88;100.00;99914.34;4878822;29;20393;-73
2023/04/24 01:10:52;;;;;;;21.13;11.65;;;;;;;8.88;100.00;99910.84;4878955;29;20096;-73
2023/04/24 01:13:19;;;;;;;17.95;9.32;;;;;;;8.87;100.00;99904.72;4878897;29;20116;-73
2023/04/24 01:15:45;;;;;;;22.15;9.77;;;;;;;8.89;100.00;99915.97;4878819;29;20052;-73
2023/04/24 01:18:10;;;;;;;21.33;11.43;;;;;;;8.87;100.00;99907.38;4878941;29;20029;-73
2023/04/24 01:20:39;;;;;;;21.42;10.63;;;;;;;8.87;100.00;99899.41;4878664;29;20037;-73
2023/04/24 01:23:05;;;;;;;25.15;11.52;;;;;;;8.87;100.00;99902.06;4878776;29;20457;-73
2023/04/24 01:25:31;;;;;;;19.63;10.10;;;;;;;8.83;100.00;99898.19;4877420;29;20064;-73
2023/04/24 01:27:56;;;;;;;22.20;10.73;;;;;;;8.85;100.00;99895.31;4878595;29;20061;-73
2023/04/24 01:30:22;;;;;;;24.73;11.90;;;;;;;8.79;100.00;99894.31;4878668;29;20025;-73
2023/04/24 01:32:48;;;;;;;22.92;10.75;;;;;;;8.82;100.00;99901.88;4877186;29;20065;-73
2023/04/24 01:35:14;;;;;;;24.10;10.88;;;;;;;8.79;100.00;99907.59;4878376;29;20033;-73
2023/04/24 01:37:39;;;;;;;24.00;11.07;;;;;;;8.75;100.00;99901.91;4896218;29;20087;-73
2023/04/24 01:40:06;;;;;;;22.65;10.80;;;;;;;8.71;100.00;99908.66;4896500;29;20500;-73
2023/04/24 01:42:32;;;;;;;20.48;10.50;;;;;;;8.64;100.00;99896.38;4896217;29;20039;-73
2023/04/24 01:44:57;;;;;;;18.42;9.55;;;;;;;8.65;100.00;99901.50;4896129;29;20032;-73
2023/04/24 01:47:23;;;;;;;18.92;9.48;;;;;;;8.61;100.00;99904.78;4879381;29;20036;-73
2023/04/24 01:49:50;;;;;;;20.63;11.02;;;;;;;8.54;100.00;99902.97;4896196;29;20537;-73
2023/04/24 01:52:16;;;;;;;20.40;12.05;;;;;;;8.51;100.00;99895.41;4896125;29;20540;-73
2023/04/24 01:54:41;;;;;;;22.00;11.45;;;;;;;8.53;100.00;99908.47;4896055;29;20028;-73
2023/04/24 01:57:07;;;;;;;22.05;11.23;;;;;;;8.54;100.00;99905.63;4895870;29;20448;-73
2023/04/24 01:59:33;;;;;;;24.05;13.20;;;;;;;8.48;100.00;99906.41;4895790;29;20085;-73
2023/04/24 02:01:58;;;;;;;21.55;12.18;;;;;;;8.50;100.00;99908.88;4878708;29;20489;-73
2023/04/24 02:04:24;;;;;;;24.55;13.57;;;;;;;8.46;100.00;99903.19;4878653;29;20388;-73
2023/04/24 02:06:49;;;;;;;29.17;13.68;;;;;;;8.49;100.00;99905.41;4896050;29;20037;-73
2023/04/24 02:09:14;;;;;;;24.33;12.80;;;;;;;8.48;100.00;99903.75;4895832;29;20040;-72
2023/04/24 02:11:40;;;;;;;26.38;13.93;;;;;;;8.46;100.00;99919.13;4895887;29;20369;-73
2023/04/24 02:14:05;;;;;;;29.17;14.07;;;;;;;8.41;100.00;99912.75;4895772;29;20108;-73
2023/04/24 02:16:32;;;;;;;25.52;13.82;;;;;;;8.41;100.00;99904.78;4895448;29;20040;-73
2023/04/24 02:18:58;;;;;;;25.30;13.77;;;;;;;8.37;100.00;99900.91;4895631;29;20037;-73
2023/04/24 02:21:23;;;;;;;24.55;13.13;;;;;;;8.44;100.00;99923.81;4895539;29;20036;-73
2023/04/24 02:23:48;;;;;;;23.67;12.18;;;;;;;8.44;100.00;99921.16;4878824;29;20040;-73
2023/04/24 02:26:15;;;;;;;24.05;12.55;;;;;;;8.45;100.00;99919.31;4895451;29;20420;-73
2023/04/24 02:28:40;;;;;;;27.20;14.27;;;;;;;8.43;100.00;99916.03;4895321;29;20102;-73
2023/04/24 02:31:06;;;;;;;27.73;14.68;;;;;;;8.39;100.00;99913.00;4895475;29;20073;-73
2023/04/24 02:33:31;;;;;;;25.48;13.15;;;;;;;8.37;100.00;99916.84;4895432;29;20088;-73
2023/04/24 02:35:56;;;;;;;27.95;13.85;;;;;;;8.41;100.00;99915.41;4895205;29;20060;-73
2023/04/24 02:38:22;;;;;;;26.50;13.32;;;;;;;8.41;100.00;99908.28;4895539;29;20044;-73
2023/04/24 02:40:47;;;;;;;25.45;13.13;;;;;;;8.43;100.00;99919.50;4895559;29;20068;-73
2023/04/24 02:43:13;;;;;;;23.88;12.55;;;;;;;8.42;100.00;99919.72;4895122;29;20048;-73
2023/04/24 02:45:38;;;;;;;23.65;13.25;;;;;;;8.39;100.00;99907.66;4895142;29;20048;-73
2023/04/24 02:48:03;;;;;;;25.58;14.05;;;;;;;8.40;100.00;99909.28;4895068;29;20111;-73
2023/04/24 02:50:29;;;;;;;31.50;15.88;;;;;;;8.38;100.00;99900.69;4895112;29;20034;-72
2023/04/24 02:52:54;;;;;;;25.10;14.82;;;;;;;8.38;100.00;99908.66;4895408;29;20465;-72
2023/04/24 02:55:19;;;;;;;26.88;14.15;;;;;;;8.35;100.00;99909.88;4894966;29;20036;-72
2023/04/24 02:57:45;;;;;;;24.73;14.43;;;;;;;8.32;100.00;99898.84;4894858;29;20065;-72
2023/04/24 03:00:11;;;;;;;28.48;14.68;;;;;;;8.33;100.00;99914.59;4894814;29;20059;-73
2023/04/24 03:02:36;;;;;;;24.33;14.82;;;;;;;8.36;100.00;99905.41;4894970;29;20080;-73
2023/04/24 03:05:03;;;;;;;24.75;12.80;;;;;;;8.35;100.00;99915.19;4894743;29;20044;-73
2023/04/24 03:07:28;;;;;;;27.77;12.75;;;;;;;8.34;100.00;99910.09;4894725;29;20032;-73
2023/04/24 03:09:54;;;;;;;24.98;13.85;;;;;;;8.33;100.00;99911.94;4894720;29;20038;-73
2023/04/24 03:12:19;;;;;;;24.63;13.20;;;;;;;8.32;100.00;99912.94;4860086;29;20041;-73
2023/04/24 03:14:44;;;;;;;25.00;13.88;;;;;;;8.33;100.00;99913.75;4893804;29;20071;-73
2023/04/24 03:17:10;;;;;;;29.35;14.93;;;;;;;8.32;100.00;99915.59;4894950;29;20043;-73
2023/04/24 03:19:35;;;;;;;24.25;13.10;;;;;;;8.33;100.00;99908.44;4894652;29;20039;-73
2023/04/24 03:22:02;;;;;;;26.90;12.85;;;;;;;8.34;100.00;99913.56;4894426;29;20593;-73
2023/04/24 03:24:28;;;;;;;25.52;15.07;;;;;;;8.33;100.00;99914.59;4894351;29;20039;-73
2023/04/24 03:26:53;;;;;;;29.17;13.48;;;;;;;8.34;100.00;99904.78;4877475;29;20024;-73
2023/04/24 03:29:19;;;;;;;26.23;13.10;;;;;;;8.34;100.00;99916.22;4894413;29;20139;-73
2023/04/24 03:31:44;;;;;;;26.33;13.45;;;;;;;8.31;100.00;99905.19;4894346;29;20080;-73
2023/04/24 03:34:10;;;;;;;25.35;13.00;;;;;;;8.32;100.00;99904.97;4894136;29;20060;-73
2023/04/24 03:36:35;;;;;;;22.63;12.65;;;;;;;8.25;100.00;99898.88;4894362;29;20056;-73
2023/04/24 03:39:00;;;;;;;25.13;12.98;;;;;;;8.35;100.00;99909.88;4894243;29;20113;-73
2023/04/24 03:41:26;;;;;;;21.80;11.57;;;;;;;8.30;100.00;99900.88;4894142;29;20028;-73
2023/04/24 03:43:51;;;;;;;25.42;13.05;;;;;;;8.33;100.00;99909.28;4877437;29;20041;-73
2023/04/24 03:46:16;;;;;;;24.27;12.30;;;;;;;8.31;100.00;99899.88;4894250;29;20033;-73
2023/04/24 03:48:42;;;;;;;29.40;11.02;;;;;;;8.33;100.00;99914.59;4894190;29;20037;-73
2023/04/24 03:51:07;;;;;;;22.48;11.57;;;;;;;8.33;100.00;99911.09;4863521;29;20032;-73
2023/04/24 03:53:32;;;;;;;23.55;11.77;;;;;;;8.32;100.00;99910.28;4894028;29;20036;-73
2023/04/24 03:55:58;;;;;;;25.75;14.10;;;;;;;8.29;100.00;99901.91;4877227;29;20055;-73
2023/04/24 03:58:23;;;;;;;21.65;11.18;;;;;;;8.27;100.00;99896.81;4893973;29;20460;-73
2023/04/24 04:00:49;;;;;;;23.40;13.07;;;;;;;8.29;100.00;99916.00;4891017;29;20568;-73
2023/04/24 04:03:15;;;;;;;23.58;11.32;;;;;;;8.26;100.00;99907.66;4894068;29;20043;-73
2023/04/24 04:05:40;;;;;;;21.33;10.68;;;;;;;8.19;100.00;99899.66;4892794;29;20075;-73
2023/04/24 04:08:06;;;;;;;23.58;11.23;;;;;;;8.21;100.00;99905.59;4893931;29;20036;-73
2023/04/24 04:10:31;;;;;;;22.75;10.77;;;;;;;8.19;100.00;99902.31;4893889;29;20047;-73
2023/04/24 04:12:56;;;;;;;20.52;10.32;;;;;;;8.21;100.00;99905.59;4877100;29;20036;-73
2023/04/24 04:15:23;;;;;;;20.02;10.68;;;;;;;8.20;100.00;99908.44;4893796;29;20459;-73
2023/04/24 04:17:48;;;;;;;18.75;9.90;;;;;;;8.20;100.00;99908.44;4893981;29;20032;-73
2023/04/24 04:20:14;;;;;;;23.67;11.05;;;;;;;8.17;100.00;99907.00;4893822;29;20025;-73
2023/04/24 04:22:39;;;;;;;21.58;11.35;;;;;;;8.19;100.00;99898.84;4893817;29;20075;-73
2023/04/24 04:25:05;;;;;;;25.63;9.95;;;;;;;8.21;100.00;99904.78;4893748;29;20029;-73
2023/04/24 04:27:31;;;;;;;20.92;11.05;;;;;;;8.19;100.00;99910.28;4897491;29;20092;-73
2023/04/24 04:30:04;;;;;;;25.45;10.95;;;;;;;8.18;100.00;99906.00;4897616;29;20115;-73
2023/04/24 04:32:34;;;;;;;24.67;10.60;;;;;;;8.13;100.00;99900.50;4897240;29;20060;-73
2023/04/24 04:35:03;;;;;;;20.73;10.77;;;;;;;8.10;100.00;99898.25;4897528;29;20044;-73
2023/04/24 04:37:31;;;;;;;19.55;9.40;;;;;;;8.11;100.00;99905.19;4880467;29;20044;-73
2023/04/24 04:39:57;;;;;;;19.80;10.90;;;;;;;8.08;100.00;99905.59;4897320;29;20036;-73
2023/04/24 04:42:23;;;;;;;23.25;10.00;;;;;;;8.07;100.00;99920.72;4897316;29;20084;-73
2023/04/24 04:44:50;;;;;;;19.60;10.15;;;;;;;8.04;100.00;99904.34;4897336;29;20437;-73
2023/04/24 04:47:16;;;;;;;22.30;10.00;;;;;;;8.05;100.00;99911.31;4880603;29;20040;-73
2023/04/24 04:49:41;;;;;;;22.23;11.63;;;;;;;8.04;100.00;99918.47;4897098;29;20480;-73
2023/04/24 04:52:06;;;;;;;18.85;8.77;;;;;;;8.04;100.00;99920.28;4896831;29;20029;-73
2023/04/24 04:54:32;;;;;;;18.40;9.52;;;;;;;8.05;100.00;99916.63;4897082;29;20499;-72
2023/04/24 04:56:57;;;;;;;21.13;9.98;;;;;;;8.04;100.00;99923.78;4884120;29;20040;-73
2023/04/24 04:59:23;;;;;;;20.50;9.98;;;;;;;8.05;100.00;99921.94;4879186;29;20051;-72
2023/04/24 05:01:48;;;;;;;20.35;9.15;;;;;;;8.05;100.00;99913.97;4880090;29;20044;-73
2023/04/24 05:04:14;;;;;;;18.88;9.60;;;;;;;8.05;100.00;99913.97;4887933;29;20037;-75
2023/04/24 05:06:39;;;;;;;15.13;8.23;;;;;;;8.03;100.00;99918.66;4881800;29;20041;-73
2023/04/24 05:09:05;;;;;;;18.63;8.30;;;;;;;8.01;100.00;99916.19;4865171;29;20037;-74
2023/04/24 05:11:30;;;;;;;16.92;8.93;;;;;;;7.98;100.00;99929.88;4865437;29;20123;-72
2023/04/24 05:13:55;;;;;;;17.30;8.35;;;;;;;7.97;100.00;99927.44;4881950;29;20416;-72
2023/04/24 05:16:21;;;;;;;16.17;8.00;;;;;;;7.96;100.00;99936.41;4881315;29;20365;-72
2023/04/24 05:18:46;;;;;;;17.48;9.43;;;;;;;7.94;100.00;99931.31;4882078;29;20556;-71
2023/04/24 05:21:12;;;;;;;15.68;8.70;;;;;;;8.01;100.00;99941.94;4880691;29;20037;-72
2023/04/24 05:23:37;;;;;;;16.77;8.55;;;;;;;8.03;100.00;99946.03;4881653;29;20037;-71
2023/04/24 05:26:03;;;;;;;18.33;9.13;;;;;;;8.06;100.00;99945.63;4881370;29;20100;-72
2023/04/24 05:28:28;;;;;;;17.73;7.57;;;;;;;8.06;100.00;99942.16;4880964;29;20132;-75
2023/04/24 05:30:59;;;;;;;18.08;7.70;;;;;;;8.06;100.00;99942.97;4863760;29;20060;-74
2023/04/24 05:33:24;;;;;;;15.52;7.88;;;;;;;8.07;100.00;99955.25;4880778;29;20056;-71
2023/04/24 05:35:50;;;;;;;17.77;8.05;;;;;;;8.06;100.00;99950.94;4872692;29;20525;-73
2023/04/24 05:38:17;;;;;;;15.20;7.43;;;;;;;8.06;100.00;99958.09;4880051;29;20115;-72
2023/04/24 05:40:43;;;;;;;15.85;7.35;;;;;;;8.07;100.00;99952.59;4881632;29;20037;-71
2023/04/24 05:43:08;;;;;;;16.70;6.78;;;;;;;8.11;100.00;99959.13;4881561;29;20441;-71
2023/04/24 05:45:35;;;;;;;13.32;6.35;;;;;;;8.11;100.00;99958.31;4880268;29;20036;-72
2023/04/24 05:48:01;;;;;;;14.75;7.32;;;;;;;8.08;100.00;99964.03;4881369;29;20028;-70
2023/04/24 05:50:27;;;;;;;9.70;4.88;;;;;;;8.06;100.00;99958.09;4881176;29;20032;-72
2023/04/24 05:52:53;;;;;;;8.60;4.43;;;;;;;8.03;100.00;99963.81;4881167;29;20029;-73
2023/04/24 05:55:18;;;;;;;10.43;5.15;;;;;;;8.02;100.00;99964.84;4880537;29;20028;-73
2023/04/24 05:57:44;;;;;;;11.43;5.53;;;;;;;8.01;100.00;99974.63;4880890;29;20092;-73
2023/04/24 06:00:11;;;;;;;10.73;5.18;;;;;;;7.99;100.00;99989.97;4863983;29;20075;-73
2023/04/24 06:02:37;;;;;;;11.45;5.03;;;;;;;7.96;100.00;99979.72;4881086;29;20446;-73
2023/04/24 06:05:04;;;;;;;11.00;5.00;;;;;;;7.95;100.00;99998.50;4880224;29;20028;-73
2023/04/24 06:07:30;;;;;;;6.35;3.33;;;;;;;7.92;100.00;99988.31;4880460;29;20041;-74
2023/04/24 06:09:56;;;;;;;7.15;3.63;;;;;;;7.97;100.00;99999.13;4881258;29;20092;-74
2023/04/24 06:12:22;;;;;;;6.13;3.50;;;;;;;7.97;100.00;99999.94;4880327;29;20067;-74
2023/04/24 06:14:47;;;;;;;4.60;2.30;;;;;;;7.98;100.00;100009.53;4880923;29;20064;-79
2023/04/24 06:17:13;;;;;;;6.03;2.75;;;;;;;8.01;100.00;100009.13;4881336;29;20123;-79
2023/04/24 06:19:38;;;;;;;5.45;3.15;;;;;;;8.02;100.00;100009.97;4881425;29;21041;-77
2023/04/24 06:22:04;;;;;;;5.53;3.08;;;;;;;8.08;100.00;100017.94;4885177;29;20048;-78
2023/04/24 06:24:29;;;;;;;3.53;2.25;;;;;;;8.08;100.00;100017.13;4881701;29;20028;-78
2023/04/24 06:26:56;;;;;;;5.00;3.45;;;;;;;8.16;100.00;100022.25;4880997;29;20044;-77
2023/04/24 06:29:21;;;;;;;3.67;2.47;;;;;;;8.09;100.00;100018.75;4881122;29;20033;-78
2023/04/24 06:31:47;;;;;;;4.75;2.60;;;;;;;8.20;100.00;100039.44;4864167;29;20111;-77
2023/04/24 06:34:12;;;;;;;4.55;2.65;;;;;;;8.15;100.00;100030.41;4879962;29;20721;-79
2023/04/24 06:36:38;;;;;;;6.43;2.88;;;;;;;8.24;100.00;100047.81;4880511;29;20064;-73
2023/04/24 06:39:03;;;;;;;4.55;3.15;;;;;;;8.22;100.00;100055.97;4863404;29;20067;-73
2023/04/24 06:41:29;;;;;;;5.72;3.55;;;;;;;8.24;100.00;100059.25;4879378;29;20037;-73
2023/04/24 06:43:55;;;;;;;6.53;3.35;;;;;;;8.23;100.00;100065.59;4863324;29;20453;-73
2023/04/24 06:46:25;;;;;;;8.52;3.70;;;;;;;8.20;100.00;100068.66;4879570;29;20040;-73
2023/04/24 06:48:56;;;;;;;6.95;3.97;;;;;;;8.28;100.00;100079.09;4880628;29;20031;-74
2023/04/24 06:51:26;;;;;;;5.30;3.60;;;;;;;8.32;100.00;100080.31;4880250;29;20029;-74
2023/04/24 06:53:55;;;;;;;5.65;4.13;;;;;;;8.33;100.00;100078.47;4879906;29;20481;-74
2023/04/24 06:56:22;;;;;;;8.93;5.05;;;;;;;8.37;100.00;100095.66;4879606;29;20489;-74
2023/04/24 06:58:47;;;;;;;10.40;4.72;;;;;;;8.37;100.00;100095.66;4879729;29;20091;-76
2023/04/24 07:01:13;;;;;;;10.07;5.47;;;;;;;8.37;100.00;100105.47;4879786;29;20489;-76
2023/04/24 07:03:38;;;;;;;9.98;5.55;;;;;;;8.35;100.00;100106.47;4878400;29;20076;-74
2023/04/24 07:06:05;;;;;;;9.55;4.88;;;;;;;8.29;100.00;100101.97;4879909;29;20433;-77
2023/04/24 07:08:30;;;;;;;6.57;4.00;;;;;;;8.27;100.00;100105.84;4879037;29;20025;-76
2023/04/24 07:10:56;;;;;;;7.80;3.85;;;;;;;8.21;100.00;100102.16;4879374;29;20514;-77
2023/04/24 07:13:22;;;;;;;8.18;4.88;;;;;;;8.19;100.00;100121.97;4863080;29;20111;-76
2023/04/24 07:15:50;;;;;;;6.15;3.70;;;;;;;8.16;100.00;100130.34;4879935;29;20510;-76
2023/04/24 07:18:15;;;;;;;8.02;4.15;;;;;;;8.13;100.00;100142.19;4879010;29;20033;-75
2023/04/24 07:20:41;;;;;;;8.18;4.75;;;;;;;8.12;100.00;100144.03;4879616;29;20031;-76
2023/04/24 07:23:06;;;;;;;11.70;5.18;;;;;;;8.10;100.00;100150.56;4870205;29;20032;-74
2023/04/24 07:25:31;;;;;;;11.05;5.22;;;;;;;8.11;100.00;100168.09;4878377;29;20469;-74
2023/04/24 07:27:57;;;;;;;13.55;6.13;;;;;;;8.06;100.00;100165.22;4880008;29;20036;-75
2023/04/24 07:30:23;;;;;;;15.15;7.03;;;;;;;8.04;100.00;100177.88;4878727;29;20801;-75
2023/04/24 07:32:48;;;;;;;16.90;8.70;;;;;;;8.00;100.00;100196.03;4878823;29;20065;-75
2023/04/24 07:35:13;;;;;;;19.13;8.25;;;;;;;7.94;100.00;100199.50;4878556;29;20374;-74
2023/04/24 07:37:39;;;;;;;16.95;7.00;;;;;;;7.92;100.00;100203.34;4879417;29;20035;-74
2023/04/24 07:40:05;;;;;;;22.70;9.15;;;;;;;7.88;100.00;100219.66;4878124;29;21243;-73
2023/04/24 07:42:30;;;;;;;13.98;6.50;;;;;;;7.80;100.00;100227.78;4879446;29;20481;-73
2023/04/24 07:44:56;;;;;;;12.77;5.97;;;;;;;7.78;100.00;100247.56;4882222;29;20045;-73
2023/04/24 07:47:22;;;;;;;15.30;6.85;;;;;;;7.70;100.00;100245.88;4878464;29;20036;-72
2023/04/24 07:49:47;;;;;;;12.07;6.43;;;;;;;7.74;100.00;100254.28;4880104;29;20028;-72
2023/04/24 07:52:12;;;;;;;17.70;5.75;;;;;;;7.73;100.00;100261.44;4879267;29;20045;-72
2023/04/24 07:54:38;;;;;;;13.05;6.22;;;;;;;7.71;100.00;100257.31;4878247;29;20101;-72
2023/04/24 07:57:04;;;;;;;15.05;5.93;;;;;;;7.71;100.00;100278.56;4879330;29;20041;-74
2023/04/24 07:59:29;;;;;;;13.07;5.60;;;;;;;7.71;100.00;100287.34;4883239;29;20047;-72
2023/04/24 08:01:55;;;;;;;17.30;6.60;;;;;;;7.72;100.00;100285.50;4878131;29;20103;-73
2023/04/24 08:04:21;;;;;;;16.27;7.55;;;;;;;7.73;100.00;100292.44;4879354;29;20103;-72
2023/04/24 08:06:48;;;;;;;11.48;5.85;;;;;;;7.78;100.00;100292.69;4879183;29;20058;-72
2023/04/24 08:09:13;;;;;;;11.60;5.55;;;;;;;7.80;100.00;100307.41;4878203;29;20060;-72
2023/04/24 08:11:38;;;;;;;17.25;6.35;;;;;;;7.79;100.00;100312.94;4878725;29;20138;-72
2023/04/24 08:14:04;;;;;;;21.23;6.88;;;;;;;7.81;100.00;100316.22;4879017;29;20040;-73
2023/04/24 08:16:29;;;;;;;12.75;6.05;;;;;;;7.71;100.00;100308.56;4877323;29;20523;-71
2023/04/24 08:18:54;;;;;;;17.10;5.75;;;;;;;7.84;100.00;100329.91;4879212;29;20033;-74
2023/04/24 08:21:20;;;;;;;16.60;6.80;;;;;;;7.88;100.00;100328.50;4878443;29;20029;-76
2023/04/24 08:23:46;;;;;;;17.55;5.20;;;;;;;7.93;100.00;100351.03;4879108;29;20085;-74
2023/04/24 08:26:12;;;;;;;13.75;5.47;;;;;;;7.95;100.00;100349.81;4879632;29;21471;-72
2023/04/24 08:28:37;;;;;;;18.27;5.18;;;;;;;7.95;100.00;100355.13;4878864;29;20060;-72
2023/04/24 08:31:03;;;;;;;15.88;4.85;;;;;;;7.93;100.00;100369.59;4877622;29;20446;-72
2023/04/24 08:33:34;;;;;;;15.07;4.50;;;;;;;7.89;100.00;100364.69;4879076;29;20053;-77
2023/04/24 08:36:00;;;;;;;11.77;3.85;;;;;;;7.94;100.00;100377.41;4862595;29;20149;-71
2023/04/24 08:38:26;;;;;;;10.20;4.30;;;;;;;7.93;100.00;100393.50;4884028;29;20039;-72
2023/04/24 08:40:52;;;;;;;12.20;4.85;;;;;;;7.95;100.00;100392.31;4893630;29;20045;-72
2023/04/24 08:43:18;;;;;;;7.60;4.10;;;;;;;8.00;100.00;100397.06;4893531;29;20051;-72
2023/04/24 08:45:43;;;;;;;11.35;4.00;;;;;;;8.06;100.00;100402.41;4893523;29;20637;-72
2023/04/24 08:48:09;;;;;;;9.90;4.60;;;;;;;8.12;100.00;100412.28;4893701;29;20555;-72
2023/04/24 08:50:35;;;;;;;14.98;4.45;;;;;;;8.16;100.00;100410.06;4893564;29;20024;-72
2023/04/24 08:53:01;;;;;;;12.43;3.78;;;;;;;8.18;100.00;100412.53;4876683;29;20036;-72
2023/04/24 08:55:29;;;;;;;13.27;3.92;;;;;;;8.21;100.00;100422.78;4893505;29;20345;-72
2023/04/24 08:57:54;;;;;;;13.65;4.82;;;;;;;8.21;100.00;100426.25;4893584;29;20043;-72
2023/04/24 09:00:21;;;;;;;12.30;4.32;;;;;;;8.25;100.00;100426.66;4892694;29;20036;-72
2023/04/24 09:02:49;;;;;;;13.35;4.10;;;;;;;8.24;100.00;100425.84;4892371;29;20051;-72
2023/04/24 09:05:17;;;;;;;14.73;3.55;;;;;;;8.26;100.00;100425.66;4893230;29;20035;-72
2023/04/24 09:07:45;;;;;;;14.27;4.93;;;;;;;8.35;100.00;100445.75;4893249;29;20091;-72
2023/04/24 09:10:11;;;;;;;9.48;3.30;;;;;;;8.35;100.00;100438.59;4892817;29;20035;-73
2023/04/24 09:12:36;;;;;;;7.03;3.70;;;;;;;8.47;100.00;100444.25;4861674;29;20029;-72
2023/04/24 09:15:03;;;;;;;16.50;3.75;;;;;;;8.58;100.00;100445.56;4896675;29;20032;-72
2023/04/24 09:17:30;;;;;;;14.35;3.67;;;;;;;8.61;100.00;100461.13;4896685;29;20079;-72
2023/04/24 09:19:55;;;;;;;12.95;2.97;;;;;;;8.60;100.00;100450.69;4883461;29;20029;-73
2023/04/24 09:22:21;;;;;;;14.65;3.63;;;;;;;8.53;100.00;100454.13;4878640;29;20390;-72
2023/04/24 09:24:47;;;;;;;17.27;4.10;;;;;;;8.62;100.00;100465.44;4861852;29;20024;-72
2023/04/24 09:27:14;;;;;;;9.02;3.33;;;;;;;8.59;100.00;100457.00;4878827;29;20048;-72
2023/04/24 09:29:53;;;;;;;11.18;3.63;;;;;;;8.82;100.00;100468.22;4862184;29;20033;-72
2023/04/24 09:32:24;;;;;;;8.10;3.40;;;;;;;9.03;100.00;100464.66;4896546;29;20097;-72
2023/04/24 09:35:11;;;;;;;8.20;2.33;;;;;;;9.12;100.00;100484.78;4896379;29;20163;-72
2023/04/24 09:37:41;;;;;;;10.73;3.85;;;;;;;9.18;100.00;100488.50;4896587;29;20396;-72
2023/04/24 09:40:08;;;;;;;9.15;2.75;;;;;;;9.23;100.00;100495.91;4896353;29;20047;-72
2023/04/24 09:42:34;;;;;;;13.10;3.78;;;;;;;9.37;100.00;100502.91;4896397;29;20040;-72
2023/04/24 09:44:59;;;;;;;13.00;3.60;;;;;;;9.64;100.00;100512.69;4896020;29;20037;-72
2023/04/24 09:47:24;;;;;;;5.22;2.90;;;;;;;9.88;100.00;100519.31;4896043;29;20044;-72
2023/04/24 09:49:50;;;;;;;8.45;3.80;;;;;;;9.94;100.00;100517.69;4879364;29;20393;-72
2023/04/24 09:52:15;;;;;;;8.05;2.97;;;;;;;9.82;100.00;100530.78;4896136;29;20392;-72
2023/04/24 09:54:40;;;;;;;7.13;3.08;;;;;;;9.60;100.00;100526.59;4896302;29;20029;-72
2023/04/24 09:57:09;;;;;;;10.27;3.38;;;;;;;9.42;100.00;100538.56;4879424;29;20088;-72
2023/04/24 09:59:35;;;;;;;12.00;2.92;;;;;;;9.21;100.00;100533.34;4896210;29;20038;-72
2023/04/24 10:02:00;;;;;;;7.50;2.90;;;;;;;8.96;100.00;100523.16;4895861;29;20032;-72
2023/04/24 10:04:27;;;;;;;10.13;2.55;;;;;;;8.98;100.00;100554.88;4862414;29;20100;-72
2023/04/24 10:06:54;;;;;;;11.45;3.00;;;;;;;8.89;100.00;100556.03;4877910;29;20119;-72
2023/04/24 10:09:23;;;;;;;10.90;4.13;;;;;;;8.71;100.00;100554.66;4877881;29;20029;-72
2023/04/24 10:11:50;;;;;;;11.65;2.85;;;;;;;8.72;100.00;100563.47;4877814;29;20049;-72
2023/04/24 10:14:18;;;;;;;12.85;3.40;;;;;;;8.72;100.00;100560.78;4877937;29;20121;-72
2023/04/24 10:16:46;;;;;;;14.13;3.22;;;;;;;8.75;100.00;100563.91;4894440;29;20127;-72
2023/04/24 10:19:13;;;;;;;8.18;3.28;;;;;;;8.80;100.00;100562.50;4895663;29;20036;-72
2023/04/24 10:21:42;;;;;;;8.55;3.40;;;;;;;8.88;100.00;100576.50;4895581;29;20512;-72
2023/04/24 10:24:08;;;;;;;9.02;2.95;;;;;;;9.05;100.00;100563.72;4894446;29;20429;-72
2023/04/24 10:26:34;;;;;;;9.25;2.85;;;;;;;9.25;100.00;100573.66;4893288;29;20033;-72
2023/04/24 10:29:01;;;;;;;8.43;2.60;;;;;;;9.29;100.00;100577.59;4876634;29;20165;-72
2023/04/24 10:31:30;;;;;;;7.40;2.42;;;;;;;9.33;100.00;100576.22;4893576;29;20382;-72
2023/04/24 10:33:58;;;;;;;7.53;2.42;;;;;;;9.43;100.00;100588.16;4893271;29;20063;-72
2023/04/24 10:36:26;;;;;;;6.88;3.05;;;;;;;9.54;100.00;100593.94;4893322;29;20401;-72
2023/04/24 10:38:54;;;;;;;7.35;2.80;;;;;;;9.49;100.00;100596.38;4893680;29;20025;-72
2023/04/24 10:41:22;;;;;;;8.32;2.17;;;;;;;9.37;99.36;100588.09;4878219;29;20458;-72
2023/04/24 10:44:03;;;;;;;11.05;3.28;;;;;;;9.20;96.93;100583.06;4895119;29;20457;-73
2023/04/24 10:46:30;;;;;;;6.15;2.78;;;;;;;9.12;99.57;100603.69;4880263;29;20064;-72
2023/04/24 10:48:56;;;;;;;6.20;2.47;;;;;;;9.04;98.97;100601.16;4878023;29;20052;-72
2023/04/24 10:51:23;;;;;;;12.32;2.25;;;;;;;8.97;98.79;100609.09;4894983;29;20029;-72
2023/04/24 10:53:51;;;;;;;6.38;2.75;;;;;;;8.88;100.00;100607.56;4894867;29;20075;-72
2023/04/24 10:56:17;;;;;;;16.90;3.38;;;;;;;8.89;100.00;100615.38;4895107;29;20024;-72
2023/04/24 10:58:52;;;;;;;13.20;2.22;;;;;;;9.00;100.00;100616.69;4894915;29;20078;-74
2023/04/24 11:01:31;;;;;;;2.90;1.90;;;;;;;9.19;99.36;100623.97;4894917;29;20115;-75
2023/04/24 11:04:04;;;;;;;4.78;1.67;;;;;;;9.51;100.00;100628.91;4894766;29;20034;-75
2023/04/24 11:06:34;;;;;;;2.35;1.23;;;;;;;9.59;99.55;100623.47;4894935;29;20051;-75
2023/04/24 11:09:05;;;;;;;4.20;1.33;;;;;;;9.76;94.69;100623.97;4894866;29;20029;-75
2023/04/24 11:11:30;;;;;;;3.55;2.47;;;;;;;9.79;94.01;100620.91;4894695;29;20025;-75
2023/04/24 11:13:56;;;;;;;6.40;2.55;;;;;;;9.73;92.94;100619.84;4894842;29;20119;-75
2023/04/24 11:16:40;;;;;;;4.03;1.65;;;;;;;9.80;96.94;100628.69;4894675;29;20056;-75